sensor_id;sensor_type;location;lat;lon;timestamp;P1;durP1;ratioP1;P2;durP2;ratioP2
56537;SDS011;42435;53.292;6.000;2023-07-13T00:00:37;5.93;;;2.15;;
56537;SDS011;42435;53.292;6.000;2023-07-13T00:03:03;12.52;;;2.78;;
56537;SDS011;42435;53.292;6.000;2023-07-13T00:05:29;6.85;;;2.05;;
56537;SDS011;42435;53.292;6.000;2023-07-13T00:07:56;9.50;;;2.15;;
56537;SDS011;42435;53.292;6.000;2023-07-13T00:10:22;6.93;;;1.75;;
56537;SDS011;42435;53.292;6.000;2023-07-13T00:12:47;10.25;;;1.70;;
56537;SDS011;42435;53.292;6.000;2023-07-13T00:15:23;5.30;;;1.80;;
56537;SDS011;42435;53.292;6.000;2023-07-13T00:17:54;4.70;;;1.33;;
56537;SDS011;42435;53.292;6.000;2023-07-13T00:20:21;7.15;;;2.25;;
56537;SDS011;42435;53.292;6.000;2023-07-13T00:22:50;9.23;;;1.80;;
56537;SDS011;42435;53.292;6.000;2023-07-13T00:25:19;10.73;;;1.60;;
56537;SDS011;42435;53.292;6.000;2023-07-13T00:27:46;7.03;;;1.50;;
56537;SDS011;42435;53.292;6.000;2023-07-13T00:30:14;6.75;;;1.55;;
56537;SDS011;42435;53.292;6.000;2023-07-13T00:32:40;4.63;;;1.50;;
56537;SDS011;42435;53.292;6.000;2023-07-13T00:35:06;5.93;;;1.50;;
56537;SDS011;42435;53.292;6.000;2023-07-13T00:37:32;4.38;;;1.10;;
56537;SDS011;42435;53.292;6.000;2023-07-13T00:40:01;7.03;;;1.52;;
56537;SDS011;42435;53.292;6.000;2023-07-13T00:42:29;7.05;;;1.60;;
56537;SDS011;42435;53.292;6.000;2023-07-13T00:45:02;8.40;;;1.98;;
56537;SDS011;42435;53.292;6.000;2023-07-13T00:47:27;4.90;;;1.20;;
56537;SDS011;42435;53.292;6.000;2023-07-13T00:49:53;8.75;;;1.58;;
56537;SDS011;42435;53.292;6.000;2023-07-13T00:52:19;8.40;;;1.88;;
56537;SDS011;42435;53.292;6.000;2023-07-13T00:54:45;4.13;;;1.50;;
56537;SDS011;42435;53.292;6.000;2023-07-13T00:57:12;4.40;;;1.70;;
56537;SDS011;42435;53.292;6.000;2023-07-13T00:59:42;8.02;;;1.30;;
56537;SDS011;42435;53.292;6.000;2023-07-13T01:02:10;5.40;;;1.70;;
56537;SDS011;42435;53.292;6.000;2023-07-13T01:04:36;11.65;;;1.67;;
56537;SDS011;42435;53.292;6.000;2023-07-13T01:07:03;5.18;;;1.40;;
56537;SDS011;42435;53.292;6.000;2023-07-13T01:09:31;5.05;;;1.27;;
56537;SDS011;42435;53.292;6.000;2023-07-13T01:11:57;3.78;;;1.17;;
56537;SDS011;42435;53.292;6.000;2023-07-13T01:14:24;5.45;;;1.20;;
56537;SDS011;42435;53.292;6.000;2023-07-13T01:16:50;6.10;;;1.52;;
56537;SDS011;42435;53.292;6.000;2023-07-13T01:22:10;5.68;;;1.10;;
56537;SDS011;42435;53.292;6.000;2023-07-13T01:24:41;4.13;;;1.10;;
56537;SDS011;42435;53.292;6.000;2023-07-13T01:27:10;3.75;;;1.02;;
56537;SDS011;42435;53.292;6.000;2023-07-13T01:29:38;3.53;;;0.75;;
56537;SDS011;42435;53.292;6.000;2023-07-13T01:32:08;2.97;;;1.05;;
56537;SDS011;42435;53.292;6.000;2023-07-13T01:34:42;3.67;;;0.80;;
56537;SDS011;42435;53.292;6.000;2023-07-13T01:37:10;5.57;;;1.00;;
56537;SDS011;42435;53.292;6.000;2023-07-13T01:39:36;3.20;;;0.85;;
56537;SDS011;42435;53.292;6.000;2023-07-13T01:42:03;2.83;;;0.75;;
56537;SDS011;42435;53.292;6.000;2023-07-13T01:44:29;4.88;;;0.80;;
56537;SDS011;42435;53.292;6.000;2023-07-13T01:46:55;7.97;;;1.92;;
56537;SDS011;42435;53.292;6.000;2023-07-13T01:49:21;2.92;;;1.02;;
56537;SDS011;42435;53.292;6.000;2023-07-13T01:51:46;4.70;;;1.27;;
56537;SDS011;42435;53.292;6.000;2023-07-13T01:54:12;2.22;;;0.73;;
56537;SDS011;42435;53.292;6.000;2023-07-13T01:56:38;2.05;;;0.68;;
56537;SDS011;42435;53.292;6.000;2023-07-13T01:59:05;3.72;;;0.85;;
56537;SDS011;42435;53.292;6.000;2023-07-13T02:01:30;2.50;;;0.85;;
56537;SDS011;42435;53.292;6.000;2023-07-13T02:03:56;2.97;;;0.90;;
56537;SDS011;42435;53.292;6.000;2023-07-13T02:06:22;2.63;;;0.93;;
56537;SDS011;42435;53.292;6.000;2023-07-13T02:08:47;5.28;;;0.82;;
56537;SDS011;42435;53.292;6.000;2023-07-13T02:11:14;2.65;;;0.80;;
56537;SDS011;42435;53.292;6.000;2023-07-13T02:13:40;3.78;;;1.10;;
56537;SDS011;42435;53.292;6.000;2023-07-13T02:16:06;7.15;;;1.23;;
56537;SDS011;42435;53.292;6.000;2023-07-13T02:18:31;5.35;;;1.17;;
56537;SDS011;42435;53.292;6.000;2023-07-13T02:20:57;4.53;;;1.50;;
56537;SDS011;42435;53.292;6.000;2023-07-13T02:23:23;4.40;;;1.00;;
56537;SDS011;42435;53.292;6.000;2023-07-13T02:25:49;3.80;;;1.30;;
56537;SDS011;42435;53.292;6.000;2023-07-13T02:28:19;4.10;;;1.00;;
56537;SDS011;42435;53.292;6.000;2023-07-13T02:30:45;5.60;;;1.30;;
56537;SDS011;42435;53.292;6.000;2023-07-13T02:33:10;4.60;;;1.20;;
56537;SDS011;42435;53.292;6.000;2023-07-13T02:38:12;2.30;;;1.20;;
56537;SDS011;42435;53.292;6.000;2023-07-13T02:40:37;3.05;;;1.58;;
56537;SDS011;42435;53.292;6.000;2023-07-13T02:43:03;4.20;;;1.15;;
56537;SDS011;42435;53.292;6.000;2023-07-13T02:45:29;3.25;;;1.40;;
56537;SDS011;42435;53.292;6.000;2023-07-13T02:47:55;4.40;;;1.60;;
56537;SDS011;42435;53.292;6.000;2023-07-13T02:50:21;5.68;;;1.63;;
56537;SDS011;42435;53.292;6.000;2023-07-13T02:52:46;4.05;;;1.70;;
56537;SDS011;42435;53.292;6.000;2023-07-13T02:55:12;8.52;;;1.80;;
56537;SDS011;42435;53.292;6.000;2023-07-13T02:57:38;3.83;;;1.55;;
56537;SDS011;42435;53.292;6.000;2023-07-13T03:00:04;5.38;;;2.00;;
56537;SDS011;42435;53.292;6.000;2023-07-13T03:02:31;5.95;;;2.08;;
56537;SDS011;42435;53.292;6.000;2023-07-13T03:04:58;9.52;;;2.05;;
56537;SDS011;42435;53.292;6.000;2023-07-13T03:07:24;6.95;;;1.98;;
56537;SDS011;42435;53.292;6.000;2023-07-13T03:09:58;5.15;;;2.50;;
56537;SDS011;42435;53.292;6.000;2023-07-13T03:12:24;7.63;;;1.75;;
56537;SDS011;42435;53.292;6.000;2023-07-13T03:14:50;7.13;;;2.00;;
56537;SDS011;42435;53.292;6.000;2023-07-13T03:17:16;9.20;;;2.20;;
56537;SDS011;42435;53.292;6.000;2023-07-13T03:19:42;6.93;;;2.00;;
56537;SDS011;42435;53.292;6.000;2023-07-13T03:22:09;8.82;;;2.45;;
56537;SDS011;42435;53.292;6.000;2023-07-13T03:24:35;8.27;;;2.20;;
56537;SDS011;42435;53.292;6.000;2023-07-13T03:27:03;6.18;;;2.30;;
56537;SDS011;42435;53.292;6.000;2023-07-13T03:29:30;5.43;;;2.10;;
56537;SDS011;42435;53.292;6.000;2023-07-13T03:31:58;5.25;;;2.35;;
56537;SDS011;42435;53.292;6.000;2023-07-13T03:34:24;9.35;;;2.63;;
56537;SDS011;42435;53.292;6.000;2023-07-13T03:36:50;8.70;;;2.63;;
56537;SDS011;42435;53.292;6.000;2023-07-13T03:39:15;6.72;;;2.47;;
56537;SDS011;42435;53.292;6.000;2023-07-13T03:41:50;7.05;;;2.95;;
56537;SDS011;42435;53.292;6.000;2023-07-13T03:44:16;7.38;;;2.50;;
56537;SDS011;42435;53.292;6.000;2023-07-13T03:46:43;6.55;;;2.65;;
56537;SDS011;42435;53.292;6.000;2023-07-13T03:49:09;8.68;;;2.40;;
56537;SDS011;42435;53.292;6.000;2023-07-13T03:51:35;9.95;;;3.05;;
56537;SDS011;42435;53.292;6.000;2023-07-13T03:54:01;8.07;;;2.53;;
56537;SDS011;42435;53.292;6.000;2023-07-13T03:56:28;8.52;;;2.30;;
56537;SDS011;42435;53.292;6.000;2023-07-13T03:58:55;10.75;;;2.78;;
56537;SDS011;42435;53.292;6.000;2023-07-13T04:01:21;10.02;;;2.75;;
56537;SDS011;42435;53.292;6.000;2023-07-13T04:03:48;9.43;;;2.55;;
56537;SDS011;42435;53.292;6.000;2023-07-13T04:06:16;7.22;;;2.72;;
56537;SDS011;42435;53.292;6.000;2023-07-13T04:08:52;9.15;;;2.75;;
56537;SDS011;42435;53.292;6.000;2023-07-13T04:11:20;10.27;;;3.60;;
56537;SDS011;42435;53.292;6.000;2023-07-13T04:13:47;9.20;;;3.00;;
56537;SDS011;42435;53.292;6.000;2023-07-13T04:16:15;12.05;;;3.33;;
56537;SDS011;42435;53.292;6.000;2023-07-13T04:18:42;11.52;;;3.30;;
56537;SDS011;42435;53.292;6.000;2023-07-13T04:21:08;6.65;;;2.85;;
56537;SDS011;42435;53.292;6.000;2023-07-13T04:23:36;10.77;;;3.50;;
56537;SDS011;42435;53.292;6.000;2023-07-13T04:26:02;7.25;;;2.90;;
56537;SDS011;42435;53.292;6.000;2023-07-13T04:28:28;9.18;;;3.25;;
56537;SDS011;42435;53.292;6.000;2023-07-13T04:30:54;7.30;;;3.33;;
56537;SDS011;42435;53.292;6.000;2023-07-13T04:33:20;9.57;;;3.40;;
56537;SDS011;42435;53.292;6.000;2023-07-13T04:35:52;8.77;;;2.95;;
56537;SDS011;42435;53.292;6.000;2023-07-13T04:38:21;9.93;;;3.08;;
56537;SDS011;42435;53.292;6.000;2023-07-13T04:40:50;13.00;;;3.83;;
56537;SDS011;42435;53.292;6.000;2023-07-13T04:43:16;9.88;;;3.30;;
56537;SDS011;42435;53.292;6.000;2023-07-13T04:45:42;8.60;;;3.38;;
56537;SDS011;42435;53.292;6.000;2023-07-13T04:48:08;11.55;;;3.38;;
56537;SDS011;42435;53.292;6.000;2023-07-13T04:50:36;7.93;;;3.13;;
56537;SDS011;42435;53.292;6.000;2023-07-13T04:53:02;11.77;;;3.45;;
56537;SDS011;42435;53.292;6.000;2023-07-13T04:55:29;11.35;;;3.58;;
56537;SDS011;42435;53.292;6.000;2023-07-13T04:57:56;11.05;;;3.42;;
56537;SDS011;42435;53.292;6.000;2023-07-13T05:00:24;10.23;;;3.35;;
56537;SDS011;42435;53.292;6.000;2023-07-13T05:02:54;9.20;;;3.67;;
56537;SDS011;42435;53.292;6.000;2023-07-13T05:05:23;11.02;;;3.67;;
56537;SDS011;42435;53.292;6.000;2023-07-13T05:07:49;9.48;;;3.97;;
56537;SDS011;42435;53.292;6.000;2023-07-13T05:10:15;8.02;;;3.50;;
56537;SDS011;42435;53.292;6.000;2023-07-13T05:12:41;9.43;;;3.20;;
56537;SDS011;42435;53.292;6.000;2023-07-13T05:15:07;12.13;;;3.50;;
56537;SDS011;42435;53.292;6.000;2023-07-13T05:17:33;9.05;;;3.78;;
56537;SDS011;42435;53.292;6.000;2023-07-13T05:20:01;10.07;;;3.20;;
56537;SDS011;42435;53.292;6.000;2023-07-13T05:22:29;10.07;;;3.83;;
56537;SDS011;42435;53.292;6.000;2023-07-13T05:24:55;9.07;;;3.67;;
56537;SDS011;42435;53.292;6.000;2023-07-13T05:27:21;8.38;;;3.30;;
56537;SDS011;42435;53.292;6.000;2023-07-13T05:29:47;8.07;;;3.60;;
56537;SDS011;42435;53.292;6.000;2023-07-13T05:32:13;6.40;;;2.95;;
56537;SDS011;42435;53.292;6.000;2023-07-13T05:34:38;7.20;;;2.70;;
56537;SDS011;42435;53.292;6.000;2023-07-13T05:37:04;8.10;;;2.60;;
56537;SDS011;42435;53.292;6.000;2023-07-13T05:39:30;6.25;;;2.17;;
56537;SDS011;42435;53.292;6.000;2023-07-13T05:41:56;7.15;;;2.45;;
56537;SDS011;42435;53.292;6.000;2023-07-13T05:44:21;7.95;;;2.50;;
56537;SDS011;42435;53.292;6.000;2023-07-13T05:46:47;4.55;;;2.30;;
56537;SDS011;42435;53.292;6.000;2023-07-13T05:49:13;6.35;;;2.30;;
56537;SDS011;42435;53.292;6.000;2023-07-13T05:51:39;8.07;;;1.95;;
56537;SDS011;42435;53.292;6.000;2023-07-13T05:56:36;4.30;;;1.73;;
56537;SDS011;42435;53.292;6.000;2023-07-13T05:59:03;5.85;;;2.08;;
56537;SDS011;42435;53.292;6.000;2023-07-13T06:01:29;5.97;;;1.98;;
56537;SDS011;42435;53.292;6.000;2023-07-13T06:03:56;9.90;;;3.28;;
56537;SDS011;42435;53.292;6.000;2023-07-13T06:06:26;6.18;;;2.17;;
56537;SDS011;42435;53.292;6.000;2023-07-13T06:08:57;7.57;;;1.77;;
56537;SDS011;42435;53.292;6.000;2023-07-13T06:11:23;2.30;;;1.38;;
56537;SDS011;42435;53.292;6.000;2023-07-13T06:13:51;5.43;;;2.45;;
56537;SDS011;42435;53.292;6.000;2023-07-13T06:16:17;5.30;;;1.67;;
56537;SDS011;42435;53.292;6.000;2023-07-13T06:18:43;5.35;;;1.85;;
56537;SDS011;42435;53.292;6.000;2023-07-13T06:21:12;3.13;;;1.42;;
56537;SDS011;42435;53.292;6.000;2023-07-13T06:23:40;8.38;;;2.85;;
56537;SDS011;42435;53.292;6.000;2023-07-13T06:26:06;6.20;;;1.30;;
56537;SDS011;42435;53.292;6.000;2023-07-13T06:28:36;3.78;;;1.58;;
56537;SDS011;42435;53.292;6.000;2023-07-13T06:31:04;5.35;;;1.50;;
56537;SDS011;42435;53.292;6.000;2023-07-13T06:33:31;3.15;;;1.27;;
56537;SDS011;42435;53.292;6.000;2023-07-13T06:36:00;7.75;;;1.73;;
56537;SDS011;42435;53.292;6.000;2023-07-13T06:38:27;3.97;;;1.25;;
56537;SDS011;42435;53.292;6.000;2023-07-13T06:40:52;3.55;;;1.40;;
56537;SDS011;42435;53.292;6.000;2023-07-13T06:43:19;7.07;;;1.05;;
56537;SDS011;42435;53.292;6.000;2023-07-13T06:45:46;3.88;;;1.10;;
56537;SDS011;42435;53.292;6.000;2023-07-13T06:48:14;4.38;;;1.20;;
56537;SDS011;42435;53.292;6.000;2023-07-13T06:50:43;3.38;;;0.98;;
56537;SDS011;42435;53.292;6.000;2023-07-13T06:53:10;4.05;;;1.23;;
56537;SDS011;42435;53.292;6.000;2023-07-13T06:55:37;5.35;;;1.10;;
56537;SDS011;42435;53.292;6.000;2023-07-13T06:58:03;1.88;;;0.80;;
56537;SDS011;42435;53.292;6.000;2023-07-13T07:00:29;5.55;;;1.23;;
56537;SDS011;42435;53.292;6.000;2023-07-13T07:02:55;4.80;;;1.30;;
56537;SDS011;42435;53.292;6.000;2023-07-13T07:05:22;1.88;;;0.90;;
56537;SDS011;42435;53.292;6.000;2023-07-13T07:07:51;4.95;;;1.10;;
56537;SDS011;42435;53.292;6.000;2023-07-13T07:10:19;3.45;;;0.80;;
56537;SDS011;42435;53.292;6.000;2023-07-13T07:12:46;1.90;;;0.80;;
56537;SDS011;42435;53.292;6.000;2023-07-13T07:15:12;3.83;;;1.30;;
56537;SDS011;42435;53.292;6.000;2023-07-13T07:17:38;4.40;;;1.20;;
56537;SDS011;42435;53.292;6.000;2023-07-13T07:20:04;3.95;;;1.65;;
56537;SDS011;42435;53.292;6.000;2023-07-13T07:22:30;2.35;;;1.10;;
56537;SDS011;42435;53.292;6.000;2023-07-13T07:24:56;6.32;;;1.23;;
56537;SDS011;42435;53.292;6.000;2023-07-13T07:27:23;3.47;;;1.23;;
56537;SDS011;42435;53.292;6.000;2023-07-13T07:29:49;3.25;;;1.20;;
56537;SDS011;42435;53.292;6.000;2023-07-13T07:32:15;4.43;;;1.55;;
56537;SDS011;42435;53.292;6.000;2023-07-13T07:34:41;2.80;;;1.20;;
56537;SDS011;42435;53.292;6.000;2023-07-13T07:37:09;3.97;;;1.20;;
56537;SDS011;42435;53.292;6.000;2023-07-13T07:39:37;3.25;;;1.42;;
56537;SDS011;42435;53.292;6.000;2023-07-13T07:42:04;5.95;;;2.40;;
56537;SDS011;42435;53.292;6.000;2023-07-13T07:44:31;4.15;;;1.40;;
56537;SDS011;42435;53.292;6.000;2023-07-13T07:46:57;3.30;;;1.05;;
56537;SDS011;42435;53.292;6.000;2023-07-13T07:49:25;3.35;;;1.30;;
56537;SDS011;42435;53.292;6.000;2023-07-13T07:51:51;3.22;;;1.13;;
56537;SDS011;42435;53.292;6.000;2023-07-13T07:54:16;5.90;;;1.48;;
56537;SDS011;42435;53.292;6.000;2023-07-13T07:56:42;5.13;;;1.60;;
56537;SDS011;42435;53.292;6.000;2023-07-13T07:59:08;5.43;;;1.67;;
56537;SDS011;42435;53.292;6.000;2023-07-13T08:01:35;3.35;;;1.20;;
56537;SDS011;42435;53.292;6.000;2023-07-13T08:04:01;4.97;;;1.10;;
56537;SDS011;42435;53.292;6.000;2023-07-13T08:06:27;5.18;;;1.35;;
56537;SDS011;42435;53.292;6.000;2023-07-13T08:08:53;3.78;;;1.20;;
56537;SDS011;42435;53.292;6.000;2023-07-13T08:11:20;7.10;;;2.03;;
56537;SDS011;42435;53.292;6.000;2023-07-13T08:13:46;4.50;;;1.40;;
56537;SDS011;42435;53.292;6.000;2023-07-13T08:16:12;3.60;;;1.42;;
56537;SDS011;42435;53.292;6.000;2023-07-13T08:18:38;2.63;;;1.45;;
56537;SDS011;42435;53.292;6.000;2023-07-13T08:21:06;5.28;;;1.42;;
56537;SDS011;42435;53.292;6.000;2023-07-13T08:23:33;2.55;;;1.40;;
56537;SDS011;42435;53.292;6.000;2023-07-13T08:25:59;3.80;;;1.52;;
56537;SDS011;42435;53.292;6.000;2023-07-13T08:28:26;5.55;;;1.55;;
56537;SDS011;42435;53.292;6.000;2023-07-13T08:30:54;4.20;;;1.77;;
56537;SDS011;42435;53.292;6.000;2023-07-13T08:33:21;4.50;;;2.00;;
56537;SDS011;42435;53.292;6.000;2023-07-13T08:35:50;5.53;;;1.70;;
56537;SDS011;42435;53.292;6.000;2023-07-13T08:38:17;6.10;;;2.17;;
56537;SDS011;42435;53.292;6.000;2023-07-13T08:40:43;4.07;;;1.73;;
56537;SDS011;42435;53.292;6.000;2023-07-13T08:43:19;3.80;;;2.22;;
56537;SDS011;42435;53.292;6.000;2023-07-13T08:48:25;3.25;;;1.30;;
56537;SDS011;42435;53.292;6.000;2023-07-13T08:53:26;3.05;;;1.38;;
56537;SDS011;42435;53.292;6.000;2023-07-13T08:56:02;3.20;;;1.30;;
56537;SDS011;42435;53.292;6.000;2023-07-13T08:58:29;3.20;;;1.30;;
56537;SDS011;42435;53.292;6.000;2023-07-13T09:00:58;2.80;;;1.30;;
56537;SDS011;42435;53.292;6.000;2023-07-13T09:03:31;4.53;;;1.30;;
56537;SDS011;42435;53.292;6.000;2023-07-13T09:06:06;1.73;;;1.20;;
56537;SDS011;42435;53.292;6.000;2023-07-13T09:11:23;3.15;;;1.00;;
56537;SDS011;42435;53.292;6.000;2023-07-13T09:19:05;2.65;;;1.05;;
56537;SDS011;42435;53.292;6.000;2023-07-13T09:21:37;4.05;;;1.17;;
56537;SDS011;42435;53.292;6.000;2023-07-13T09:27:08;3.65;;;0.80;;
56537;SDS011;42435;53.292;6.000;2023-07-13T09:29:47;3.53;;;0.88;;
56537;SDS011;42435;53.292;6.000;2023-07-13T09:32:19;4.07;;;1.02;;
56537;SDS011;42435;53.292;6.000;2023-07-13T09:34:52;1.95;;;0.80;;
56537;SDS011;42435;53.292;6.000;2023-07-13T09:37:23;1.25;;;0.90;;
56537;SDS011;42435;53.292;6.000;2023-07-13T09:39:55;3.28;;;0.82;;
56537;SDS011;42435;53.292;6.000;2023-07-13T09:42:22;1.40;;;0.75;;
56537;SDS011;42435;53.292;6.000;2023-07-13T09:44:58;2.92;;;0.82;;
56537;SDS011;42435;53.292;6.000;2023-07-13T09:47:31;2.30;;;0.90;;
56537;SDS011;42435;53.292;6.000;2023-07-13T09:50:04;2.63;;;0.93;;
56537;SDS011;42435;53.292;6.000;2023-07-13T09:52:42;1.83;;;0.75;;
56537;SDS011;42435;53.292;6.000;2023-07-13T09:58:04;2.33;;;0.80;;
56537;SDS011;42435;53.292;6.000;2023-07-13T10:00:37;3.50;;;0.93;;
56537;SDS011;42435;53.292;6.000;2023-07-13T10:03:09;3.47;;;1.00;;
56537;SDS011;42435;53.292;6.000;2023-07-13T10:05:46;3.10;;;1.00;;
56537;SDS011;42435;53.292;6.000;2023-07-13T10:08:17;1.70;;;0.88;;
56537;SDS011;42435;53.292;6.000;2023-07-13T10:10:45;3.25;;;1.08;;
56537;SDS011;42435;53.292;6.000;2023-07-13T10:13:28;2.47;;;1.00;;
56537;SDS011;42435;53.292;6.000;2023-07-13T10:16:02;2.80;;;1.13;;
56537;SDS011;42435;53.292;6.000;2023-07-13T10:18:31;5.20;;;1.75;;
56537;SDS011;42435;53.292;6.000;2023-07-13T10:21:13;3.78;;;1.20;;
56537;SDS011;42435;53.292;6.000;2023-07-13T10:23:54;3.15;;;1.35;;
56537;SDS011;42435;53.292;6.000;2023-07-13T10:26:31;2.83;;;1.30;;
56537;SDS011;42435;53.292;6.000;2023-07-13T10:29:02;5.70;;;1.15;;
56537;SDS011;42435;53.292;6.000;2023-07-13T10:31:36;3.00;;;1.38;;
56537;SDS011;42435;53.292;6.000;2023-07-13T10:34:04;1.58;;;1.00;;
56537;SDS011;42435;53.292;6.000;2023-07-13T10:39:23;3.45;;;1.50;;
56537;SDS011;42435;53.292;6.000;2023-07-13T10:41:53;3.55;;;1.20;;
56537;SDS011;42435;53.292;6.000;2023-07-13T10:44:29;3.53;;;1.15;;
56537;SDS011;42435;53.292;6.000;2023-07-13T10:46:58;2.92;;;1.65;;
56537;SDS011;42435;53.292;6.000;2023-07-13T10:49:31;3.58;;;1.75;;
56537;SDS011;42435;53.292;6.000;2023-07-13T10:51:59;4.68;;;1.48;;
56537;SDS011;42435;53.292;6.000;2023-07-13T10:54:34;4.55;;;1.92;;
56537;SDS011;42435;53.292;6.000;2023-07-13T10:57:07;4.75;;;1.70;;
56537;SDS011;42435;53.292;6.000;2023-07-13T10:59:42;3.45;;;1.60;;
56537;SDS011;42435;53.292;6.000;2023-07-13T11:04:48;4.45;;;1.70;;
56537;SDS011;42435;53.292;6.000;2023-07-13T11:07:22;4.93;;;1.60;;
56537;SDS011;42435;53.292;6.000;2023-07-13T11:09:59;5.10;;;1.80;;
56537;SDS011;42435;53.292;6.000;2023-07-13T11:12:50;3.85;;;1.70;;
56537;SDS011;42435;53.292;6.000;2023-07-13T11:15:32;8.95;;;2.72;;
56537;SDS011;42435;53.292;6.000;2023-07-13T11:18:20;4.70;;;2.10;;
56537;SDS011;42435;53.292;6.000;2023-07-13T11:20:48;6.32;;;1.73;;
56537;SDS011;42435;53.292;6.000;2023-07-13T11:25:41;4.80;;;1.98;;
56537;SDS011;42435;53.292;6.000;2023-07-13T11:30:38;3.08;;;1.80;;
56537;SDS011;42435;53.292;6.000;2023-07-13T11:33:10;3.75;;;2.35;;
56537;SDS011;42435;53.292;6.000;2023-07-13T11:44:01;7.28;;;2.30;;
56537;SDS011;42435;53.292;6.000;2023-07-13T11:46:33;6.65;;;2.83;;
56537;SDS011;42435;53.292;6.000;2023-07-13T11:49:04;4.07;;;2.05;;
56537;SDS011;42435;53.292;6.000;2023-07-13T11:51:33;5.95;;;2.50;;
56537;SDS011;42435;53.292;6.000;2023-07-13T11:54:10;4.43;;;2.38;;
56537;SDS011;42435;53.292;6.000;2023-07-13T11:57:06;5.65;;;2.35;;
56537;SDS011;42435;53.292;6.000;2023-07-13T11:59:51;5.25;;;2.60;;
56537;SDS011;42435;53.292;6.000;2023-07-13T12:05:17;5.60;;;3.08;;
56537;SDS011;42435;53.292;6.000;2023-07-13T12:07:45;5.63;;;2.90;;
56537;SDS011;42435;53.292;6.000;2023-07-13T12:12:51;4.25;;;2.30;;
56537;SDS011;42435;53.292;6.000;2023-07-13T12:15:19;5.30;;;2.55;;
56537;SDS011;42435;53.292;6.000;2023-07-13T12:17:47;6.05;;;2.35;;
56537;SDS011;42435;53.292;6.000;2023-07-13T12:20:23;7.63;;;2.08;;
56537;SDS011;42435;53.292;6.000;2023-07-13T12:22:58;6.32;;;2.60;;
56537;SDS011;42435;53.292;6.000;2023-07-13T12:25:24;5.93;;;2.20;;
56537;SDS011;42435;53.292;6.000;2023-07-13T12:27:50;6.65;;;2.13;;
56537;SDS011;42435;53.292;6.000;2023-07-13T12:30:24;6.38;;;1.80;;
56537;SDS011;42435;53.292;6.000;2023-07-13T12:33:17;4.53;;;1.90;;
56537;SDS011;42435;53.292;6.000;2023-07-13T12:35:46;3.42;;;1.77;;
56537;SDS011;42435;53.292;6.000;2023-07-13T12:38:15;4.75;;;1.90;;
56537;SDS011;42435;53.292;6.000;2023-07-13T12:40:42;4.68;;;1.92;;
56537;SDS011;42435;53.292;6.000;2023-07-13T12:43:11;5.03;;;2.70;;
56537;SDS011;42435;53.292;6.000;2023-07-13T12:45:39;4.40;;;1.35;;
56537;SDS011;42435;53.292;6.000;2023-07-13T12:48:28;3.53;;;1.50;;
56537;SDS011;42435;53.292;6.000;2023-07-13T12:50:55;6.90;;;2.00;;
56537;SDS011;42435;53.292;6.000;2023-07-13T12:53:22;5.50;;;1.83;;
56537;SDS011;42435;53.292;6.000;2023-07-13T12:55:55;4.95;;;1.42;;
56537;SDS011;42435;53.292;6.000;2023-07-13T12:58:26;4.18;;;1.25;;
56537;SDS011;42435;53.292;6.000;2023-07-13T13:00:57;5.38;;;1.70;;
56537;SDS011;42435;53.292;6.000;2023-07-13T13:08:28;6.45;;;1.60;;
56537;SDS011;42435;53.292;6.000;2023-07-13T13:10:55;4.68;;;1.25;;
56537;SDS011;42435;53.292;6.000;2023-07-13T13:13:20;5.70;;;1.60;;
56537;SDS011;42435;53.292;6.000;2023-07-13T13:15:46;7.10;;;2.22;;
56537;SDS011;42435;53.292;6.000;2023-07-13T13:18:24;6.20;;;2.35;;
56537;SDS011;42435;53.292;6.000;2023-07-13T13:20:50;7.20;;;2.30;;
56537;SDS011;42435;53.292;6.000;2023-07-13T13:23:17;5.93;;;2.55;;
56537;SDS011;42435;53.292;6.000;2023-07-13T13:25:46;7.05;;;2.28;;
56537;SDS011;42435;53.292;6.000;2023-07-13T13:28:17;5.55;;;2.30;;
56537;SDS011;42435;53.292;6.000;2023-07-13T13:30:45;6.75;;;2.83;;
56537;SDS011;42435;53.292;6.000;2023-07-13T13:33:13;5.18;;;1.98;;
56537;SDS011;42435;53.292;6.000;2023-07-13T13:35:41;5.72;;;2.45;;
56537;SDS011;42435;53.292;6.000;2023-07-13T13:38:09;5.95;;;1.70;;
56537;SDS011;42435;53.292;6.000;2023-07-13T13:40:41;8.20;;;2.50;;
56537;SDS011;42435;53.292;6.000;2023-07-13T13:43:14;4.55;;;1.90;;
56537;SDS011;42435;53.292;6.000;2023-07-13T13:45:45;5.18;;;2.30;;
56537;SDS011;42435;53.292;6.000;2023-07-13T13:48:18;4.47;;;1.80;;
56537;SDS011;42435;53.292;6.000;2023-07-13T13:50:47;5.50;;;2.20;;
56537;SDS011;42435;53.292;6.000;2023-07-13T13:53:14;6.10;;;2.08;;
56537;SDS011;42435;53.292;6.000;2023-07-13T13:55:41;5.88;;;2.42;;
56537;SDS011;42435;53.292;6.000;2023-07-13T13:58:10;9.40;;;2.35;;
56537;SDS011;42435;53.292;6.000;2023-07-13T14:00:37;5.10;;;1.98;;
56537;SDS011;42435;53.292;6.000;2023-07-13T14:03:03;5.57;;;2.33;;
56537;SDS011;42435;53.292;6.000;2023-07-13T14:05:31;12.40;;;3.17;;
56537;SDS011;42435;53.292;6.000;2023-07-13T14:07:57;5.72;;;2.03;;
56537;SDS011;42435;53.292;6.000;2023-07-13T14:10:23;7.03;;;2.75;;
56537;SDS011;42435;53.292;6.000;2023-07-13T14:12:52;7.43;;;2.85;;
56537;SDS011;42435;53.292;6.000;2023-07-13T14:15:25;8.35;;;2.58;;
56537;SDS011;42435;53.292;6.000;2023-07-13T14:17:53;7.38;;;2.30;;
56537;SDS011;42435;53.292;6.000;2023-07-13T14:20:21;9.95;;;2.47;;
56537;SDS011;42435;53.292;6.000;2023-07-13T14:22:49;8.32;;;2.72;;
56537;SDS011;42435;53.292;6.000;2023-07-13T14:25:20;5.32;;;2.33;;
56537;SDS011;42435;53.292;6.000;2023-07-13T14:27:48;4.80;;;2.22;;
56537;SDS011;42435;53.292;6.000;2023-07-13T14:30:20;5.80;;;2.60;;
56537;SDS011;42435;53.292;6.000;2023-07-13T14:32:47;7.75;;;2.50;;
56537;SDS011;42435;53.292;6.000;2023-07-13T14:35:15;9.02;;;2.30;;
56537;SDS011;42435;53.292;6.000;2023-07-13T14:37:41;6.47;;;2.55;;
56537;SDS011;42435;53.292;6.000;2023-07-13T14:40:13;5.78;;;2.22;;
56537;SDS011;42435;53.292;6.000;2023-07-13T14:42:39;6.00;;;2.70;;
56537;SDS011;42435;53.292;6.000;2023-07-13T14:45:04;6.25;;;2.05;;
56537;SDS011;42435;53.292;6.000;2023-07-13T14:47:31;8.82;;;2.70;;
56537;SDS011;42435;53.292;6.000;2023-07-13T14:49:57;5.35;;;2.42;;
56537;SDS011;42435;53.292;6.000;2023-07-13T14:52:23;6.90;;;2.20;;
56537;SDS011;42435;53.292;6.000;2023-07-13T14:54:49;5.45;;;2.20;;
56537;SDS011;42435;53.292;6.000;2023-07-13T14:57:16;4.40;;;2.25;;
56537;SDS011;42435;53.292;6.000;2023-07-13T14:59:46;7.60;;;2.55;;
56537;SDS011;42435;53.292;6.000;2023-07-13T15:02:14;7.95;;;2.20;;
56537;SDS011;42435;53.292;6.000;2023-07-13T15:04:44;7.15;;;2.75;;
56537;SDS011;42435;53.292;6.000;2023-07-13T15:07:10;15.63;;;3.20;;
56537;SDS011;42435;53.292;6.000;2023-07-13T15:09:38;9.20;;;2.38;;
56537;SDS011;42435;53.292;6.000;2023-07-13T15:12:04;7.93;;;2.30;;
56537;SDS011;42435;53.292;6.000;2023-07-13T15:14:30;6.65;;;2.50;;
56537;SDS011;42435;53.292;6.000;2023-07-13T15:16:57;6.20;;;2.28;;
56537;SDS011;42435;53.292;6.000;2023-07-13T15:19:24;5.38;;;2.45;;
56537;SDS011;42435;53.292;6.000;2023-07-13T15:21:51;7.32;;;2.28;;
56537;SDS011;42435;53.292;6.000;2023-07-13T15:24:19;5.95;;;2.20;;
56537;SDS011;42435;53.292;6.000;2023-07-13T15:26:46;6.18;;;2.20;;
56537;SDS011;42435;53.292;6.000;2023-07-13T15:29:14;4.00;;;1.98;;
56537;SDS011;42435;53.292;6.000;2023-07-13T15:31:41;4.72;;;2.00;;
56537;SDS011;42435;53.292;6.000;2023-07-13T15:34:09;5.68;;;2.50;;
56537;SDS011;42435;53.292;6.000;2023-07-13T15:36:38;7.15;;;2.40;;
56537;SDS011;42435;53.292;6.000;2023-07-13T15:39:05;5.20;;;2.47;;
56537;SDS011;42435;53.292;6.000;2023-07-13T15:41:31;4.65;;;2.20;;
56537;SDS011;42435;53.292;6.000;2023-07-13T15:43:58;6.28;;;2.10;;
56537;SDS011;42435;53.292;6.000;2023-07-13T15:46:26;5.68;;;2.83;;
56537;SDS011;42435;53.292;6.000;2023-07-13T15:48:54;8.05;;;3.00;;
56537;SDS011;42435;53.292;6.000;2023-07-13T15:51:24;4.97;;;2.25;;